createdAt,value
2023-03-06T00:43:20.249Z,2.57
2023-03-06T00:44:20.195Z,2.66
2023-03-06T00:46:20.105Z,2.61
2023-03-06T00:47:20.049Z,2.69
2023-03-06T00:48:20.003Z,2.59
2023-03-06T00:49:19.985Z,2.63
2023-03-06T00:50:19.951Z,2.61
2023-03-06T00:51:19.897Z,2.61
2023-03-06T00:52:19.856Z,2.59
2023-03-06T00:53:19.782Z,2.63
2023-03-06T00:54:19.742Z,2.65
2023-03-06T00:55:19.738Z,2.66
2023-03-06T00:56:20.071Z,2.65
2023-03-06T00:57:19.605Z,2.65
2023-03-06T00:58:19.676Z,2.66
2023-03-06T00:59:19.501Z,2.66
2023-03-06T01:00:19.492Z,2.65
2023-03-06T01:01:19.487Z,2.59
2023-03-06T01:02:19.451Z,2.60
2023-03-06T01:03:19.335Z,2.50
2023-03-06T01:04:19.278Z,2.46
2023-03-06T01:05:19.253Z,2.44
2023-03-06T01:06:19.204Z,2.44
2023-03-06T01:07:19.162Z,2.42
2023-03-06T01:08:19.125Z,2.40
2023-03-06T01:09:19.072Z,2.41
2023-03-06T01:10:19.007Z,2.31
2023-03-06T01:11:18.991Z,2.34
2023-03-06T01:12:18.934Z,2.28
2023-03-06T01:13:18.885Z,2.25
2023-03-06T01:14:18.861Z,2.21
2023-03-06T01:15:18.838Z,2.17
2023-03-06T01:16:18.891Z,2.18
2023-03-06T01:17:18.713Z,2.17
2023-03-06T01:18:18.675Z,2.11
2023-03-06T01:19:18.627Z,2.11
2023-03-06T01:20:18.598Z,2.14
2023-03-06T01:21:18.555Z,2.06
2023-03-06T01:22:18.497Z,2.09
2023-03-06T01:23:18.452Z,2.07
2023-03-06T01:24:18.416Z,2.06
2023-03-06T01:25:18.385Z,2.02
2023-03-06T01:26:18.328Z,2.04
2023-03-06T01:27:18.295Z,2.02
2023-03-06T01:28:18.247Z,2.02
2023-03-06T01:29:18.212Z,2.00
2023-03-06T01:30:18.181Z,1.99
2023-03-06T01:31:18.185Z,1.96
2023-03-06T01:32:18.156Z,1.89
2023-03-06T01:33:18.802Z,1.96
2023-03-06T01:34:18.006Z,1.94
2023-03-06T01:35:18.045Z,1.96
2023-03-06T01:36:17.983Z,1.94
2023-03-06T01:37:17.904Z,1.91
2023-03-06T01:38:17.862Z,1.90
2023-03-06T01:39:17.855Z,1.92
2023-03-06T01:40:17.797Z,1.81
2023-03-06T01:41:17.762Z,1.86
2023-03-06T01:42:17.735Z,1.86
2023-03-06T01:43:17.692Z,1.87
2023-03-06T01:44:17.647Z,1.88
2023-03-06T01:45:17.644Z,1.85
2023-03-06T01:46:17.574Z,1.83
2023-03-06T01:47:17.531Z,1.87
2023-03-06T01:48:17.495Z,1.84
2023-03-06T01:49:17.466Z,1.81
2023-03-06T01:50:17.430Z,1.81
2023-03-06T01:51:17.403Z,1.82
2023-03-06T01:52:17.336Z,1.79
2023-03-06T01:53:17.312Z,1.79
2023-03-06T01:54:17.275Z,1.75
2023-03-06T01:55:17.236Z,1.75
2023-03-06T01:56:17.215Z,1.79
2023-03-06T01:57:17.208Z,1.73
2023-03-06T01:58:17.136Z,1.76
2023-03-06T01:59:17.107Z,1.73
2023-03-06T02:00:17.082Z,1.69
2023-03-06T02:01:17.129Z,1.65
2023-03-06T02:02:17.001Z,1.68
2023-03-06T02:03:16.942Z,1.70
2023-03-06T02:04:16.920Z,1.70
2023-03-06T02:05:16.877Z,1.71
2023-03-06T02:06:16.809Z,1.66
2023-03-06T02:07:16.776Z,1.63
2023-03-06T02:08:16.746Z,1.70
2023-03-06T02:09:16.715Z,1.67
2023-03-06T02:10:16.649Z,1.68
2023-03-06T02:11:16.628Z,1.69
2023-03-06T02:12:16.586Z,1.64
2023-03-06T02:13:16.536Z,1.64
2023-03-06T02:14:16.507Z,1.67
2023-03-06T02:15:16.448Z,1.62
2023-03-06T02:16:16.406Z,1.63
2023-03-06T02:17:16.404Z,1.59
2023-03-06T02:18:16.317Z,1.63
2023-03-06T02:19:16.309Z,1.66
2023-03-06T02:20:16.253Z,1.58
2023-03-06T02:21:16.223Z,1.56
2023-03-06T02:22:16.184Z,1.52
2023-03-06T02:23:16.157Z,1.58
2023-03-06T02:24:16.096Z,1.60
2023-03-06T02:25:16.062Z,1.59
2023-03-06T02:26:16.041Z,1.54
2023-03-06T02:27:16.333Z,1.59
2023-03-06T02:28:15.963Z,1.56
2023-03-06T02:29:16.013Z,1.58
2023-03-06T02:30:15.892Z,1.61
2023-03-06T02:31:15.927Z,1.57
2023-03-06T02:32:15.849Z,1.59
2023-03-06T02:33:15.782Z,1.57
2023-03-06T02:34:15.754Z,1.56
2023-03-06T02:35:15.728Z,1.53
2023-03-06T02:36:15.671Z,1.56
2023-03-06T02:37:15.652Z,1.51
2023-03-06T02:38:15.610Z,1.51
2023-03-06T02:39:15.557Z,1.52
2023-03-06T02:40:15.503Z,1.52
2023-03-06T02:41:15.481Z,1.54
2023-03-06T02:42:15.434Z,1.58
2023-03-06T02:43:15.375Z,1.60
2023-03-06T02:44:15.335Z,1.60
2023-03-06T02:45:15.304Z,1.61
2023-03-06T02:46:15.299Z,1.61
2023-03-06T02:47:15.222Z,1.63
2023-03-06T02:48:15.189Z,1.67
2023-03-06T02:49:15.150Z,1.70
2023-03-06T02:50:15.120Z,1.72
2023-03-06T02:51:15.056Z,1.75
2023-03-06T02:52:15.009Z,1.72
2023-03-06T02:53:14.977Z,1.75
2023-03-06T02:54:14.947Z,1.74
2023-03-06T02:55:14.885Z,1.77
2023-03-06T02:56:14.895Z,1.80
2023-03-06T02:57:14.837Z,1.79
2023-03-06T02:58:14.770Z,1.81
2023-03-06T02:59:14.765Z,1.89
2023-03-06T03:00:14.696Z,1.87
2023-03-06T03:01:14.686Z,1.86
2023-03-06T03:02:14.646Z,1.90
2023-03-06T03:03:14.590Z,1.86
2023-03-06T03:04:14.633Z,1.91
2023-03-06T03:05:14.517Z,1.90
2023-03-06T03:06:14.484Z,1.95
2023-03-06T03:07:14.465Z,1.89
2023-03-06T03:08:14.436Z,1.93
2023-03-06T03:09:14.399Z,1.90
2023-03-06T03:10:14.372Z,1.96
2023-03-06T03:11:14.318Z,1.93
2023-03-06T03:12:14.300Z,1.96
2023-03-06T03:13:14.269Z,2.00
2023-03-06T03:14:14.220Z,1.94
2023-03-06T03:15:14.162Z,1.95
2023-03-06T03:16:14.206Z,1.96
2023-03-06T03:17:14.088Z,2.00
2023-03-06T03:18:14.062Z,2.00
2023-03-06T03:19:14.044Z,1.98
2023-03-06T03:20:14.080Z,2.04
2023-03-06T03:21:13.927Z,2.06
2023-03-06T03:22:13.927Z,2.03
2023-03-06T03:23:13.837Z,2.02
2023-03-06T03:24:13.874Z,2.03
2023-03-06T03:25:13.821Z,2.06
2023-03-06T03:26:13.715Z,2.00
2023-03-06T03:27:13.693Z,2.07
2023-03-06T03:28:13.647Z,2.03
2023-03-06T03:29:13.653Z,2.04
2023-03-06T03:30:13.641Z,2.03
2023-03-06T03:31:13.590Z,2.06
2023-03-06T03:32:13.570Z,2.07
2023-03-06T03:33:13.470Z,2.09
2023-03-06T03:34:13.435Z,2.03
2023-03-06T03:35:13.374Z,2.07
2023-03-06T03:36:13.336Z,2.10
2023-03-06T03:37:13.287Z,2.07
2023-03-06T03:38:13.270Z,2.07
2023-03-06T03:39:13.211Z,2.11
2023-03-06T03:40:13.193Z,2.07
2023-03-06T03:41:13.144Z,2.08
2023-03-06T03:42:13.124Z,2.09
2023-03-06T03:43:13.079Z,2.10
2023-03-06T03:44:13.060Z,2.10
2023-03-06T03:45:12.996Z,2.09
2023-03-06T03:46:13.040Z,2.12
2023-03-06T03:47:12.918Z,2.12
2023-03-06T03:48:12.864Z,2.11
2023-03-06T03:49:12.809Z,2.09
2023-03-06T03:50:12.762Z,2.07
2023-03-06T03:51:12.717Z,2.10
2023-03-06T03:52:12.678Z,2.11
2023-03-06T03:53:12.633Z,2.14
2023-03-06T03:54:12.582Z,2.13
2023-03-06T03:55:12.580Z,2.09
2023-03-06T03:56:12.505Z,2.15
2023-03-06T03:57:12.459Z,2.14
2023-03-06T03:58:12.426Z,2.14
2023-03-06T03:59:12.372Z,2.13
2023-03-06T04:00:12.363Z,2.17
2023-03-06T04:01:12.290Z,2.20
2023-03-06T04:02:12.305Z,2.16
2023-03-06T04:03:12.223Z,2.12
2023-03-06T04:04:12.170Z,2.12
2023-03-06T04:05:12.238Z,2.12
2023-03-06T04:06:12.097Z,2.05
2023-03-06T04:07:12.044Z,2.00
2023-03-06T04:08:12.015Z,2.02
2023-03-06T04:09:11.992Z,1.99
2023-03-06T04:10:11.934Z,1.91
2023-03-06T04:11:11.895Z,1.90
2023-03-06T04:12:11.837Z,1.91
2023-03-06T04:13:11.793Z,1.84
2023-03-06T04:14:11.784Z,1.84
2023-03-06T04:15:11.725Z,1.87
2023-03-06T04:16:11.742Z,1.82
2023-03-06T04:17:11.634Z,1.79
2023-03-06T04:18:11.597Z,1.79
2023-03-06T04:19:11.604Z,1.74
2023-03-06T04:20:11.537Z,1.76
2023-03-06T04:21:11.514Z,1.72
2023-03-06T04:22:11.450Z,1.73
2023-03-06T04:23:11.400Z,1.73
2023-03-06T04:24:11.403Z,1.69
2023-03-06T04:25:11.382Z,1.72
2023-03-06T04:26:11.303Z,1.69
2023-03-06T04:27:11.317Z,1.61
2023-03-06T04:28:11.220Z,1.69
2023-03-06T04:29:11.172Z,1.65
2023-03-06T04:30:11.138Z,1.65
2023-03-06T04:31:11.140Z,1.66
2023-03-06T04:32:11.079Z,1.63
2023-03-06T04:33:11.012Z,1.60
2023-03-06T04:34:10.967Z,1.57
2023-03-06T04:35:10.932Z,1.55
2023-03-06T04:36:10.878Z,1.58
2023-03-06T04:37:10.843Z,1.58
2023-03-06T04:38:10.798Z,1.56
2023-03-06T04:39:10.819Z,1.60
2023-03-06T04:40:10.725Z,1.55
2023-03-06T04:41:10.659Z,1.56
2023-03-06T04:42:10.615Z,1.52
2023-03-06T04:43:10.544Z,1.51
2023-03-06T04:44:10.519Z,1.55
2023-03-06T04:45:10.454Z,1.51
2023-03-06T04:46:10.437Z,1.51
2023-03-06T04:47:10.398Z,1.55
2023-03-06T04:48:10.357Z,1.49
2023-03-06T04:49:10.279Z,1.49
2023-03-06T04:50:10.252Z,1.52
2023-03-06T04:51:10.189Z,1.50
2023-03-06T04:52:10.132Z,1.46
2023-03-06T04:53:10.086Z,1.52
2023-03-06T04:54:10.031Z,1.49
2023-03-06T04:55:10.025Z,1.51
2023-03-06T04:56:09.929Z,1.50
2023-03-06T04:57:09.888Z,1.47
2023-03-06T04:58:09.840Z,1.46
2023-03-06T04:59:09.795Z,1.50
2023-03-06T05:00:09.777Z,1.49
2023-03-06T05:01:09.719Z,1.49
2023-03-06T05:02:09.682Z,1.50
2023-03-06T05:03:09.674Z,1.47
2023-03-06T05:04:09.547Z,1.49
2023-03-06T05:05:09.518Z,1.49
2023-03-06T05:06:09.464Z,1.50
2023-03-06T05:07:09.401Z,1.47
2023-03-06T05:08:09.355Z,1.48
2023-03-06T05:09:09.316Z,1.46
2023-03-06T05:10:09.266Z,1.47
2023-03-06T05:11:09.227Z,1.45
2023-03-06T05:12:09.187Z,1.47
2023-03-06T05:13:09.127Z,1.41
2023-03-06T05:14:09.096Z,1.44
2023-03-06T05:15:09.061Z,1.46
2023-03-06T05:16:09.047Z,1.46
2023-03-06T05:17:08.961Z,1.43
2023-03-06T05:18:08.922Z,1.42
2023-03-06T05:19:08.883Z,1.45
2023-03-06T05:20:08.832Z,1.49
2023-03-06T05:21:08.774Z,1.49
2023-03-06T05:22:08.740Z,1.49
2023-03-06T05:23:08.695Z,1.49
2023-03-06T05:24:08.665Z,1.51
2023-03-06T05:25:08.611Z,1.51
2023-03-06T05:26:08.563Z,1.57
2023-03-06T05:27:08.537Z,1.60
2023-03-06T05:28:08.496Z,1.58
2023-03-06T05:29:08.444Z,1.60
2023-03-06T05:30:08.437Z,1.61
2023-03-06T05:31:08.354Z,1.62
2023-03-06T05:32:08.461Z,1.65
2023-03-06T05:33:08.272Z,1.65
2023-03-06T05:34:08.913Z,1.68
2023-03-06T05:35:08.206Z,1.69
2023-03-06T05:36:08.133Z,1.72
2023-03-06T05:37:08.077Z,1.70
2023-03-06T05:38:08.045Z,1.77
2023-03-06T05:39:08.014Z,1.72
2023-03-06T05:40:07.972Z,1.75
2023-03-06T05:41:07.913Z,1.77
2023-03-06T05:42:07.880Z,1.74
2023-03-06T05:43:07.830Z,1.76
2023-03-06T05:44:07.801Z,1.74
2023-03-06T05:45:07.792Z,1.80
2023-03-06T05:46:07.753Z,1.81
2023-03-06T05:47:07.673Z,1.86
2023-03-06T05:48:07.655Z,1.83
2023-03-06T05:49:07.582Z,1.83
2023-03-06T05:50:07.544Z,1.88
2023-03-06T05:51:07.474Z,1.92
2023-03-06T05:52:07.438Z,1.90
2023-03-06T05:53:07.392Z,1.92
2023-03-06T05:54:07.342Z,1.96
2023-03-06T05:55:07.369Z,1.91
2023-03-06T05:56:07.426Z,1.92
2023-03-06T05:57:07.208Z,1.95
2023-03-06T05:58:07.150Z,1.97
2023-03-06T05:59:07.129Z,1.94
2023-03-06T06:00:07.073Z,1.92
2023-03-06T06:01:07.036Z,1.99
2023-03-06T06:02:07.044Z,1.96
2023-03-06T06:03:06.948Z,1.97
2023-03-06T06:04:06.893Z,2.03
2023-03-06T06:05:06.817Z,2.00
2023-03-06T06:06:06.795Z,2.00
2023-03-06T06:07:06.729Z,2.00
2023-03-06T06:08:06.694Z,1.99
2023-03-06T06:09:06.664Z,1.99
2023-03-06T06:10:06.600Z,2.07
2023-03-06T06:11:06.605Z,2.02
2023-03-06T06:12:06.531Z,2.06
2023-03-06T06:13:06.459Z,2.11
2023-03-06T06:14:06.435Z,2.07
2023-03-06T06:15:06.397Z,2.05
2023-03-06T06:16:06.380Z,2.07
2023-03-06T06:17:06.292Z,2.13
2023-03-06T06:18:06.255Z,2.09
2023-03-06T06:19:06.270Z,2.10
2023-03-06T06:20:06.162Z,2.17
2023-03-06T06:21:06.132Z,2.15
2023-03-06T06:22:06.078Z,2.11
2023-03-06T06:23:06.044Z,2.12
2023-03-06T06:24:06.006Z,2.15
2023-03-06T06:25:05.965Z,2.18
2023-03-06T06:26:05.922Z,2.18
2023-03-06T06:27:05.870Z,2.17
2023-03-06T06:28:05.830Z,2.18
2023-03-06T06:29:05.769Z,2.16
2023-03-06T06:30:05.736Z,2.18
2023-03-06T06:31:05.749Z,2.25
2023-03-06T06:32:05.762Z,2.22
2023-03-06T06:33:05.604Z,2.26
2023-03-06T06:34:05.544Z,2.23
2023-03-06T06:35:05.700Z,2.20
2023-03-06T06:36:05.467Z,2.24
2023-03-06T06:37:05.407Z,2.22
2023-03-06T06:38:05.366Z,2.23
2023-03-06T06:39:05.365Z,2.16
2023-03-06T06:40:05.286Z,2.23
2023-03-06T06:41:33.449Z,2.21
2023-03-06T06:42:28.898Z,2.21
2023-03-06T06:43:06.116Z,2.21
2023-03-06T06:44:07.202Z,2.24
2023-03-06T06:45:05.029Z,2.22
2023-03-06T06:46:28.274Z,2.22
2023-03-06T06:48:05.992Z,2.22
2023-03-06T06:49:04.852Z,2.27
2023-03-06T06:50:04.775Z,2.38
2023-03-06T06:51:04.740Z,2.55
2023-03-06T06:52:04.671Z,2.85
2023-03-06T06:53:04.612Z,2.86
2023-03-06T06:54:04.593Z,2.93
2023-03-06T06:55:04.496Z,3.07
2023-03-06T06:56:04.518Z,3.27
2023-03-06T06:57:04.376Z,3.67
2023-03-06T06:58:04.318Z,3.91
2023-03-06T06:59:16.128Z,4.10
2023-03-06T07:00:05.209Z,4.12
2023-03-06T07:01:04.210Z,4.17
2023-03-06T07:02:04.115Z,4.27
2023-03-06T07:03:04.051Z,4.36
2023-03-06T07:04:04.189Z,4.70
2023-03-06T07:05:05.437Z,5.03
2023-03-06T07:06:03.846Z,5.21
2023-03-06T07:07:03.945Z,5.48
2023-03-06T07:08:03.773Z,5.49
2023-03-06T07:09:03.677Z,5.42
2023-03-06T07:10:03.644Z,5.44
2023-03-06T07:11:03.569Z,5.53
2023-03-06T07:12:03.537Z,5.73
2023-03-06T07:13:03.439Z,5.93
2023-03-06T07:14:03.384Z,6.25
2023-03-06T07:15:03.350Z,6.47
2023-03-06T07:16:03.303Z,6.65
2023-03-06T07:17:03.220Z,6.82
2023-03-06T07:18:03.176Z,6.95
2023-03-06T07:19:03.106Z,7.09
2023-03-06T07:20:03.042Z,7.02
2023-03-06T07:21:03.013Z,7.02
2023-03-06T07:22:02.927Z,7.04
2023-03-06T07:23:02.888Z,7.10
2023-03-06T07:24:02.794Z,7.19
2023-03-06T07:25:02.745Z,7.31
2023-03-06T07:26:02.696Z,7.51
2023-03-06T07:27:02.709Z,7.30
2023-03-06T07:28:02.591Z,7.59
2023-03-06T07:29:02.496Z,7.88
2023-03-06T07:30:03.005Z,7.83
2023-03-06T07:31:02.414Z,7.65
2023-03-06T07:32:02.427Z,7.65
2023-03-06T07:33:02.319Z,7.56
2023-03-06T07:34:04.823Z,7.70
2023-03-06T07:35:19.128Z,7.75
2023-03-06T07:36:03.204Z,7.76
2023-03-06T07:37:02.055Z,7.78
2023-03-06T07:38:02.011Z,7.76
2023-03-06T07:39:01.954Z,7.59
2023-03-06T07:40:01.875Z,7.54
2023-03-06T07:41:01.923Z,7.38
2023-03-06T07:42:01.775Z,7.60
2023-03-06T07:43:16.764Z,7.41
2023-03-06T07:44:02.686Z,7.34
2023-03-06T07:45:01.596Z,7.43
2023-03-06T07:46:02.481Z,7.44
2023-03-06T07:47:01.526Z,7.27
2023-03-06T07:48:01.450Z,7.36
2023-03-06T07:49:01.396Z,7.16
2023-03-06T07:50:01.330Z,7.27
2023-03-06T07:51:01.284Z,7.13
2023-03-06T07:52:01.261Z,7.00
2023-03-06T07:53:01.200Z,7.02
2023-03-06T07:54:01.126Z,6.83
2023-03-06T07:55:01.063Z,6.79
2023-03-06T07:56:01.098Z,6.90
2023-03-06T07:57:01.003Z,6.97
2023-03-06T07:58:00.887Z,6.96
2023-03-06T07:59:00.926Z,7.02
2023-03-06T08:00:00.863Z,7.26
2023-03-06T08:01:01.494Z,7.43
2023-03-06T08:02:00.742Z,7.65
2023-03-06T08:03:00.752Z,7.58
2023-03-06T08:05:00.503Z,7.65
2023-03-06T08:06:00.445Z,7.64
2023-03-06T08:07:00.402Z,7.56
2023-03-06T08:08:00.329Z,7.66
2023-03-06T08:09:00.370Z,7.53
2023-03-06T08:10:00.254Z,7.66
2023-03-06T08:11:00.140Z,7.87
2023-03-06T08:12:00.133Z,7.75
2023-03-06T08:13:00.034Z,7.66
2023-03-06T08:13:59.966Z,7.65
2023-03-06T08:15:00.036Z,7.66
2023-03-06T08:15:59.910Z,7.74
2023-03-06T08:16:59.760Z,7.66
2023-03-06T08:17:59.734Z,7.55
2023-03-06T08:18:59.669Z,7.41
2023-03-06T08:19:59.597Z,7.68
2023-03-06T08:20:59.531Z,7.64
2023-03-06T08:21:59.458Z,7.74
2023-03-06T08:22:59.423Z,7.76
2023-03-06T08:23:59.336Z,7.77
2023-03-06T08:24:59.293Z,7.70
2023-03-06T08:25:59.253Z,7.40
2023-03-06T08:26:59.166Z,7.55
2023-03-06T08:27:59.170Z,7.32
2023-03-06T08:28:59.070Z,6.90
2023-03-06T08:29:58.992Z,6.86
2023-03-06T08:30:58.958Z,6.72
2023-03-06T08:31:58.923Z,6.61
2023-03-06T08:32:58.882Z,6.46
2023-03-06T08:33:58.862Z,6.47
2023-03-06T08:34:58.694Z,6.50
2023-03-06T08:36:00.661Z,6.43
2023-03-06T08:36:58.707Z,6.42
2023-03-06T08:37:58.961Z,6.07
2023-03-06T08:38:58.500Z,6.02
2023-03-06T08:39:58.493Z,6.43
2023-03-06T08:40:58.333Z,6.59
2023-03-06T08:41:58.271Z,6.73
2023-03-06T08:42:58.670Z,6.82
2023-03-06T08:43:58.155Z,6.83
2023-03-06T08:44:58.092Z,6.79
2023-03-06T08:45:58.130Z,6.42
2023-03-06T08:46:57.959Z,6.03
2023-03-06T08:47:57.905Z,6.01
2023-03-06T08:48:57.853Z,5.99
2023-03-06T08:49:59.446Z,5.59
2023-03-06T08:50:58.015Z,5.49
2023-03-06T08:51:57.904Z,5.30
2023-03-06T08:52:57.870Z,5.07
2023-03-06T08:53:57.826Z,5.11
2023-03-06T08:54:57.866Z,4.86
2023-03-06T08:55:57.759Z,4.75
2023-03-06T08:56:57.636Z,4.48
2023-03-06T08:57:57.668Z,4.42
2023-03-06T08:58:57.671Z,4.13
2023-03-06T08:59:57.697Z,3.97
2023-03-06T09:00:57.817Z,4.14
2023-03-06T09:01:57.700Z,3.87
2023-03-06T09:02:57.627Z,3.77
2023-03-06T09:03:57.683Z,3.54
2023-03-06T09:04:57.684Z,3.68
2023-03-06T09:36:57.771Z,3.99
2023-03-06T09:37:57.117Z,3.94
2023-03-06T09:38:57.058Z,3.93
2023-03-06T09:39:57.028Z,4.04
2023-03-06T09:40:56.939Z,3.98
2023-03-06T09:41:56.963Z,4.03
2023-03-06T11:26:15.917Z,0.54
2023-03-06T12:23:52.138Z,346.97
2023-03-06T12:24:52.124Z,356.88
2023-03-06T12:25:52.035Z,362.71
2023-03-06T12:26:52.017Z,373.35
2023-03-06T12:27:51.909Z,368.13
2023-03-06T12:28:51.847Z,386.32
2023-03-06T12:30:51.778Z,395.67
2023-03-06T12:31:51.719Z,425.37
2023-03-06T12:33:51.789Z,433.03
2023-03-06T12:34:51.501Z,456.05
2023-03-06T12:35:51.461Z,428.40
2023-03-06T12:36:51.338Z,441.16
2023-03-06T12:37:51.313Z,464.77
2023-03-06T12:38:51.251Z,483.90
2023-03-06T12:39:51.282Z,497.55
2023-03-06T12:40:51.141Z,487.82
2023-03-06T12:41:51.036Z,473.62
2023-03-06T12:42:50.978Z,445.49
2023-03-06T12:43:51.117Z,410.74
2023-03-06T12:44:50.944Z,385.94
2023-03-06T12:45:50.832Z,364.63
2023-03-06T12:46:50.741Z,338.50
2023-03-06T12:47:50.704Z,320.01
2023-03-06T12:48:50.626Z,299.70
2023-03-06T12:49:50.552Z,288.36
2023-03-06T12:50:50.522Z,278.10
2023-03-06T12:51:50.418Z,253.82
2023-03-06T12:52:50.662Z,241.35
2023-03-06T12:53:50.349Z,231.78
2023-03-06T12:54:50.225Z,212.49
2023-03-06T12:55:50.166Z,195.29
2023-03-06T12:56:50.074Z,182.17
2023-03-06T12:57:50.019Z,182.67
2023-03-06T12:58:49.941Z,173.28
2023-03-06T13:56:46.388Z,50.74
2023-03-06T14:04:45.919Z,50.99
2023-03-06T14:17:45.156Z,46.73
2023-03-06T14:25:44.699Z,38.45
2023-03-06T14:26:44.632Z,41.08
2023-03-06T14:27:44.584Z,42.08
2023-03-06T14:28:44.515Z,42.00
2023-03-06T14:35:44.156Z,43.55
2023-03-06T14:36:44.068Z,44.61
2023-03-06T14:37:44.018Z,38.82
2023-03-06T14:38:43.961Z,38.41
2023-03-06T14:39:43.904Z,41.99
2023-03-06T14:40:43.825Z,39.04
2023-03-06T14:42:43.717Z,42.01
2023-03-06T14:43:43.677Z,41.93
2023-03-06T14:44:45.070Z,42.17
2023-03-06T14:45:43.614Z,36.96
2023-03-06T14:46:43.499Z,38.31
2023-03-06T14:47:43.427Z,39.22
2023-03-06T14:48:43.377Z,40.67
2023-03-06T14:49:43.306Z,42.26
2023-03-06T14:50:43.249Z,41.48
2023-03-06T14:51:43.259Z,41.60
2023-03-06T14:52:43.180Z,33.24
2023-03-06T14:53:43.074Z,36.72
2023-03-06T14:54:43.717Z,39.11
2023-03-06T14:55:42.969Z,36.93
2023-03-06T14:56:42.991Z,33.88
2023-03-06T14:57:42.906Z,32.25
2023-03-06T14:58:42.821Z,35.02
2023-03-06T14:59:42.757Z,34.06
2023-03-06T15:00:42.699Z,35.60
2023-03-06T15:01:42.647Z,34.86
2023-03-06T15:02:43.198Z,34.02
2023-03-06T15:03:42.517Z,37.24
2023-03-06T15:04:42.488Z,37.95
2023-03-06T15:05:42.400Z,38.12
2023-03-06T15:06:42.353Z,40.79
2023-03-06T15:07:42.380Z,41.23
2023-03-06T15:08:42.208Z,39.06
2023-03-06T15:09:42.204Z,40.55
2023-03-06T15:10:42.109Z,35.81
2023-03-06T15:11:42.071Z,37.53
2023-03-06T15:12:42.054Z,41.77
2023-03-06T15:13:42.078Z,43.86
2023-03-06T15:14:42.021Z,42.49
2023-03-06T15:15:41.853Z,43.53
2023-03-06T15:16:41.836Z,41.22
2023-03-06T15:17:41.796Z,44.34
2023-03-06T15:18:41.703Z,39.33
2023-03-06T15:19:41.708Z,39.12
2023-03-06T15:20:41.600Z,42.48
2023-03-06T15:21:41.553Z,35.22
2023-03-06T15:22:41.493Z,37.31
2023-03-06T15:23:41.548Z,37.37
2023-03-06T15:24:41.404Z,38.23
2023-03-06T15:25:41.306Z,42.27
2023-03-06T15:26:41.346Z,43.94
2023-03-06T15:27:41.213Z,43.32
2023-03-06T15:28:41.119Z,39.50
2023-03-06T15:29:41.083Z,40.00
2023-03-06T15:30:41.011Z,41.32
2023-03-06T15:31:40.982Z,41.16
2023-03-06T15:32:40.946Z,38.90
2023-03-06T15:33:40.988Z,39.71
2023-03-06T15:34:40.778Z,41.91
2023-03-06T15:35:40.758Z,42.51
2023-03-06T15:36:40.651Z,39.63
2023-03-06T15:37:40.611Z,39.51
2023-03-06T15:38:40.554Z,40.27
2023-03-06T15:39:40.516Z,40.03
2023-03-06T15:40:40.477Z,41.66
2023-03-06T15:41:40.393Z,37.51
2023-03-06T15:42:40.350Z,33.36
2023-03-06T15:43:40.311Z,35.26
2023-03-06T15:44:40.250Z,38.42
2023-03-06T15:45:40.170Z,36.47
2023-03-06T15:46:40.214Z,36.99
2023-03-06T15:47:40.084Z,39.22
2023-03-06T15:48:40.040Z,39.26
2023-03-06T15:49:39.988Z,41.45
2023-03-06T15:50:39.935Z,39.10
2023-03-06T15:51:39.877Z,43.28
2023-03-06T15:52:39.771Z,45.66
2023-03-06T15:53:39.771Z,46.47
2023-03-06T15:54:39.723Z,45.42
2023-03-06T15:55:39.621Z,45.70
2023-03-06T15:56:39.595Z,39.73
2023-03-06T15:57:39.515Z,40.78
2023-03-06T15:58:39.446Z,40.58
2023-03-06T15:59:39.390Z,41.71
2023-03-06T16:00:39.357Z,42.12
2023-03-06T16:01:39.278Z,42.49
2023-03-06T16:02:39.209Z,41.92
2023-03-06T16:03:39.202Z,40.79
2023-03-06T16:04:39.204Z,42.57
2023-03-06T16:05:39.050Z,42.60
2023-03-06T16:06:38.994Z,42.84
2023-03-06T16:07:38.928Z,43.12
2023-03-06T16:08:38.896Z,44.63
2023-03-06T16:09:38.824Z,41.79
2023-03-06T16:10:39.198Z,42.74
2023-03-06T16:11:43.938Z,41.94
2023-03-06T16:12:39.618Z,41.98
2023-03-06T16:13:38.565Z,42.11
2023-03-06T16:14:38.497Z,42.06
2023-03-06T16:15:38.457Z,39.86
2023-03-06T16:16:38.455Z,39.35
2023-03-06T16:17:38.328Z,42.24
2023-03-06T16:18:38.264Z,41.20
2023-03-06T16:19:38.198Z,41.02
2023-03-06T16:20:38.151Z,39.07
2023-03-06T16:21:38.063Z,39.41
2023-03-06T16:22:38.010Z,41.69
2023-03-06T16:23:37.995Z,41.50
2023-03-06T16:24:37.897Z,40.88
2023-03-06T16:25:37.830Z,41.64
2023-03-06T16:26:37.764Z,40.69
2023-03-06T16:27:37.696Z,41.38
2023-03-06T16:28:37.665Z,42.46
2023-03-06T16:29:37.567Z,40.43
2023-03-06T16:30:37.556Z,40.57
2023-03-06T16:31:37.467Z,39.63
2023-03-06T16:32:37.434Z,40.43
2023-03-06T16:33:37.327Z,40.82
2023-03-06T16:34:37.267Z,38.88
2023-03-06T16:35:37.222Z,40.75
2023-03-06T16:36:37.144Z,42.97
2023-03-06T16:37:37.073Z,38.41
2023-03-06T16:38:37.028Z,37.51
2023-03-06T16:39:36.964Z,36.40
2023-03-06T16:40:36.934Z,37.42
2023-03-06T16:41:36.837Z,38.36
2023-03-06T16:42:36.772Z,38.37
2023-03-06T16:43:36.731Z,38.41
2023-03-06T16:44:36.695Z,38.54
2023-03-06T16:45:36.628Z,38.75
2023-03-06T16:46:36.569Z,39.69
2023-03-06T16:47:36.492Z,38.84
2023-03-06T16:48:36.430Z,38.46
2023-03-06T16:49:36.422Z,38.97
2023-03-06T16:50:36.354Z,39.36
2023-03-06T16:51:36.281Z,39.45
2023-03-06T16:52:36.235Z,38.70
2023-03-06T16:53:36.204Z,38.19
2023-03-06T16:54:36.132Z,38.93
2023-03-06T16:55:36.153Z,37.17
2023-03-06T16:56:36.011Z,37.81
2023-03-06T16:57:35.981Z,36.19
2023-03-06T16:58:35.905Z,34.06
2023-03-06T16:59:35.843Z,35.37
2023-03-06T17:00:35.780Z,36.84
2023-03-06T17:01:35.796Z,35.87
2023-03-06T17:02:35.751Z,37.12
2023-03-06T17:03:35.637Z,33.27
2023-03-06T17:04:35.573Z,34.40
2023-03-06T17:05:35.531Z,34.62
2023-03-06T17:06:35.546Z,34.72
2023-03-06T17:07:35.452Z,36.59
2023-03-06T17:08:35.370Z,36.84
2023-03-06T17:09:35.334Z,37.68
2023-03-06T17:10:35.284Z,36.06
2023-03-06T17:11:35.217Z,36.94
2023-03-06T17:12:35.179Z,36.35
2023-03-06T17:13:35.119Z,35.20
2023-03-06T17:14:35.075Z,34.82
2023-03-06T17:15:35.099Z,34.56
2023-03-06T17:16:34.972Z,34.36
2023-03-06T17:17:34.917Z,34.50
2023-03-06T17:18:34.896Z,35.83
2023-03-06T17:19:34.849Z,34.23
2023-03-06T17:20:34.770Z,35.63
2023-03-06T17:21:34.709Z,36.17
2023-03-06T17:22:34.673Z,34.56
2023-03-06T17:23:34.606Z,37.17
2023-03-06T17:24:34.549Z,34.60
2023-03-06T17:25:34.509Z,35.04
2023-03-06T17:26:34.442Z,35.51
2023-03-06T17:27:34.407Z,34.27
2023-03-06T17:28:34.346Z,32.71
2023-03-06T17:29:34.292Z,31.54
2023-03-06T17:30:34.242Z,33.29
2023-03-06T17:31:34.222Z,33.70
2023-03-06T17:32:34.199Z,35.17
2023-03-06T17:33:34.096Z,32.67
2023-03-06T17:34:34.032Z,35.03
2023-03-06T17:35:33.989Z,31.70
2023-03-06T17:36:33.936Z,31.66
2023-03-06T17:37:33.942Z,34.34
2023-03-06T17:38:33.825Z,34.49
2023-03-06T17:39:33.788Z,35.20
2023-03-06T17:40:34.682Z,35.89
2023-03-06T17:41:33.678Z,35.18
2023-03-06T17:42:33.643Z,35.12
2023-03-06T17:43:33.592Z,34.01
2023-03-06T17:44:33.540Z,34.08
2023-03-06T17:45:33.619Z,34.25
2023-03-06T17:46:33.435Z,33.19
2023-03-06T17:47:33.389Z,32.77
2023-03-06T17:48:33.352Z,32.65
2023-03-06T17:49:33.327Z,34.27
2023-03-06T17:50:33.237Z,35.35
2023-03-06T17:51:33.226Z,36.51
2023-03-06T17:52:33.163Z,35.49
2023-03-06T17:53:33.113Z,36.00
2023-03-06T17:54:33.067Z,34.24
2023-03-06T17:55:33.029Z,34.65
2023-03-06T17:56:32.957Z,35.09
2023-03-06T17:57:32.949Z,35.80
2023-03-06T17:58:32.891Z,37.23
2023-03-06T17:59:32.819Z,37.41
2023-03-06T18:00:32.776Z,37.11
2023-03-06T18:01:32.775Z,36.95
2023-03-06T18:02:32.690Z,38.71
2023-03-06T18:03:32.659Z,37.62
2023-03-06T18:04:32.609Z,38.13
2023-03-06T18:05:32.553Z,38.80
2023-03-06T18:06:33.217Z,38.89
2023-03-06T18:07:32.459Z,37.82
2023-03-06T18:08:32.409Z,38.92
2023-03-06T18:09:32.368Z,38.90
2023-03-06T18:10:32.321Z,38.59
2023-03-06T18:11:32.283Z,38.74
2023-03-06T18:12:32.229Z,38.66
2023-03-06T18:13:32.194Z,37.00
2023-03-06T18:14:32.136Z,36.47
2023-03-06T18:15:32.105Z,37.80
2023-03-06T18:16:32.138Z,38.42
2023-03-06T18:17:32.117Z,38.57
2023-03-06T18:18:31.985Z,37.62
2023-03-06T18:19:31.908Z,39.18
2023-03-06T18:20:31.858Z,40.48
2023-03-06T18:21:31.811Z,39.38
2023-03-06T18:22:31.771Z,39.40
2023-03-06T18:23:31.758Z,39.64
2023-03-06T18:24:31.750Z,39.34
2023-03-06T18:25:31.654Z,39.50
2023-03-06T18:26:31.622Z,39.47
2023-03-06T18:27:31.596Z,38.11
2023-03-06T18:28:31.533Z,37.78
2023-03-06T18:29:31.466Z,37.44
2023-03-06T18:30:31.429Z,37.84
2023-03-06T18:31:34.131Z,38.99
2023-03-06T18:32:31.354Z,40.08
2023-03-06T18:33:31.304Z,40.78
2023-03-06T18:34:31.238Z,39.36
2023-03-06T18:35:31.189Z,40.38